Time;durP1;ratioP1;P1;durP2;ratioP2;P2;SDS_P1;SDS_P2;PMS_P1;PMS_P2;Temp;Humidity;BMP_temperature;BMP_pressure;BME280_temperature;BME280_humidity;BME280_pressure;Samples;Min_cycle;Max_cycle;Signal;HPM_P1;HPM_P2
2022/11/25 00:03:16;;;;;;;6.43;3.90;;;4.90;99.90;;;;;;10432117;28;20706;-78
2022/11/25 00:08:17;;;;;;;15.67;6.70;;;4.80;99.90;;;;;;10422395;28;20240;-78
2022/11/25 00:13:17;;;;;;;17.23;7.27;;;4.80;99.90;;;;;;10422385;28;20708;-78
2022/11/25 00:18:18;;;;;;;12.70;6.13;;;4.70;99.90;;;;;;10431317;28;20737;-78
2022/11/25 00:23:18;;;;;;;14.23;6.27;;;4.80;99.90;;;;;;10436089;28;20299;-78
2022/11/25 00:28:19;;;;;;;22.10;9.10;;;4.80;99.90;;;;;;10426829;28;20236;-77
2022/11/25 00:33:20;;;;;;;30.10;11.57;;;4.90;99.90;;;;;;10423325;28;20216;-77
2022/11/25 00:38:20;;;;;;;15.67;7.00;;;4.90;99.90;;;;;;10431420;28;20750;-77
2022/11/25 00:48:40;;;;;;;12.30;6.07;;;5.20;99.90;;;;;;10432182;28;20678;-78
2022/11/25 00:53:40;;;;;;;13.23;5.27;;;5.20;99.90;;;;;;10440667;28;20298;-77
2022/11/25 00:58:42;;;;;;;12.17;4.83;;;5.10;99.90;;;;;;10446330;28;20220;-77
2022/11/25 01:03:43;;;;;;;12.17;5.37;;;5.10;99.90;;;;;;10431989;28;20227;-77
2022/11/25 01:08:43;;;;;;;14.23;5.10;;;5.00;99.90;;;;;;10435104;28;20233;-77
2022/11/25 01:13:44;;;;;;;10.87;4.47;;;5.10;99.90;;;;;;10428148;28;20265;-79
2022/11/25 01:18:45;;;;;;;9.33;4.53;;;5.10;99.90;;;;;;10423596;28;20247;-80
2022/11/25 01:23:47;;;;;;;12.17;5.40;;;5.10;99.90;;;;;;10436769;28;20220;-78
2022/11/25 01:28:51;;;;;;;14.27;6.73;;;5.10;99.90;;;;;;10426604;28;20212;-80
2022/11/25 01:33:58;;;;;;;13.57;6.17;;;5.10;99.90;;;;;;10434652;28;20868;-80
2022/11/25 01:38:59;;;;;;;13.03;6.27;;;5.10;99.90;;;;;;10432968;28;20213;-81
2022/11/25 01:44:13;;;;;;;13.13;5.93;;;5.00;99.90;;;;;;10433706;28;20699;-80
2022/11/25 01:49:19;;;;;;;13.00;5.80;;;5.00;99.90;;;;;;10429643;28;20217;-76
2022/11/25 01:54:25;;;;;;;12.13;4.90;;;5.00;99.90;;;;;;10434122;28;20683;-77
2022/11/25 01:59:33;;;;;;;7.90;4.33;;;5.00;99.90;;;;;;10426904;28;20235;-78
2022/11/25 02:04:37;;;;;;;8.23;4.47;;;5.00;99.90;;;;;;10428373;28;20777;-76
2022/11/25 02:09:41;;;;;;;11.33;4.70;;;4.90;99.90;;;;;;10434510;28;20358;-76
2022/11/25 02:14:42;;;;;;;11.87;4.73;;;4.90;99.90;;;;;;10428037;28;20240;-77
2022/11/25 02:20:06;;;;;;;11.93;4.83;;;4.90;99.90;;;;;;10432324;28;20224;-77
2022/11/25 02:25:34;;;;;;;10.43;4.03;;;5.00;99.90;;;;;;10420399;28;20224;-76
2022/11/25 02:30:35;;;;;;;14.97;4.70;;;5.10;99.90;;;;;;10401690;28;20212;-77
2022/11/25 02:35:38;;;;;;;8.10;4.03;;;5.20;99.90;;;;;;10397236;28;20299;-77
2022/11/25 02:41:09;;;;;;;8.30;4.07;;;5.20;99.90;;;;;;10385862;28;20213;-77
2022/11/25 02:46:12;;;;;;;7.43;3.70;;;5.30;99.90;;;;;;10394412;28;20237;-78
2022/11/25 02:51:15;;;;;;;8.57;4.20;;;5.50;99.90;;;;;;10391062;28;20221;-79
2022/11/25 02:56:17;;;;;;;8.37;4.33;;;5.60;99.90;;;;;;10380293;28;20218;-77
2022/11/25 03:01:21;;;;;;;6.60;3.83;;;5.60;99.90;;;;;;10390504;28;20214;-76
2022/11/25 03:06:21;;;;;;;8.90;4.30;;;5.60;99.90;;;;;;10394161;28;20237;-75
2022/11/25 03:12:17;;;;;;;9.17;4.63;;;5.70;99.90;;;;;;10391249;28;20638;-75
2022/11/25 03:16:46;;;;;;;10.20;4.60;;;5.70;99.90;;;;;;10385471;28;20217;-75
2022/11/25 03:21:46;;;;;;;11.47;5.13;;;5.70;99.90;;;;;;10390022;28;20217;-78
2022/11/25 03:26:47;;;;;;;9.20;4.63;;;5.70;99.90;;;;;;10386808;28;20248;-75
2022/11/25 03:31:48;;;;;;;6.50;4.03;;;5.60;99.90;;;;;;10390835;28;20786;-76
2022/11/25 03:36:48;;;;;;;6.47;4.40;;;5.60;99.90;;;;;;10384500;28;21181;-76
2022/11/25 03:41:49;;;;;;;8.33;3.67;;;5.60;99.90;;;;;;10383544;28;20603;-76
2022/11/25 03:46:50;;;;;;;12.63;4.70;;;5.60;99.90;;;;;;10385170;28;20228;-76
2022/11/25 03:51:51;;;;;;;11.37;4.37;;;5.70;99.90;;;;;;10387488;28;20593;-76
2022/11/25 03:56:52;;;;;;;12.23;4.83;;;5.70;99.90;;;;;;10385759;28;20348;-76
2022/11/25 04:01:52;;;;;;;9.80;4.73;;;5.70;99.90;;;;;;10390571;28;20812;-76
2022/11/25 04:06:53;;;;;;;11.80;4.20;;;5.70;99.90;;;;;;10386231;28;20229;-74
2022/11/25 04:17:13;;;;;;;9.67;4.30;;;5.60;99.90;;;;;;10384748;28;20259;-76
2022/11/25 04:22:13;;;;;;;9.77;4.13;;;5.60;99.90;;;;;;10395086;28;20269;-76
2022/11/25 04:27:14;;;;;;;11.27;4.07;;;5.60;99.90;;;;;;10390494;28;20293;-74
2022/11/25 04:32:15;;;;;;;14.23;5.20;;;5.60;99.90;;;;;;10399265;28;20221;-75
2022/11/25 04:37:15;;;;;;;10.83;5.07;;;5.50;99.90;;;;;;10396756;28;20213;-74
2022/11/25 04:42:31;;;;;;;11.10;5.30;;;5.50;99.90;;;;;;10393751;28;20220;-77
2022/11/25 04:47:32;;;;;;;6.67;4.43;;;5.60;99.90;;;;;;10389555;28;20261;-74
2022/11/25 04:52:32;;;;;;;8.37;4.83;;;5.70;99.90;;;;;;10395283;28;20240;-78
2022/11/25 04:57:33;;;;;;;16.80;5.90;;;5.80;99.90;;;;;;10389012;28;20248;-74
2022/11/25 05:02:33;;;;;;;11.90;4.73;;;5.80;99.90;;;;;;10388644;28;20661;-74
2022/11/25 05:07:34;;;;;;;8.67;4.20;;;5.90;99.90;;;;;;10393889;28;20228;-72
2022/11/25 05:12:35;;;;;;;8.97;4.20;;;5.90;99.90;;;;;;10394762;28;20216;-78
2022/11/25 05:17:37;;;;;;;9.77;4.93;;;5.80;99.90;;;;;;10395356;28;20285;-73
2022/11/25 05:22:38;;;;;;;7.20;4.00;;;5.70;99.90;;;;;;10393611;28;20227;-77
2022/11/25 05:27:38;;;;;;;10.70;4.37;;;5.60;99.90;;;;;;10387551;28;20320;-78
2022/11/25 05:32:43;;;;;;;9.80;4.27;;;5.50;99.90;;;;;;10408381;28;20224;-75
2022/11/25 05:37:43;;;;;;;8.17;4.00;;;5.50;99.90;;;;;;10388614;28;20229;-75
2022/11/25 05:42:44;;;;;;;10.07;4.33;;;5.50;99.90;;;;;;10391840;28;20692;-71
2022/11/25 05:47:45;;;;;;;13.67;4.17;;;5.50;99.90;;;;;;10393673;28;20237;-72
2022/11/25 05:52:45;;;;;;;9.13;3.77;;;5.60;99.90;;;;;;10391305;28;20745;-71
2022/11/25 05:57:46;;;;;;;8.23;4.60;;;5.50;99.90;;;;;;10386779;28;20217;-72
2022/11/25 06:02:50;;;;;;;10.10;4.07;;;5.50;99.90;;;;;;10389896;28;20274;-71
2022/11/25 06:07:53;;;;;;;11.60;5.50;;;5.60;99.90;;;;;;10386323;28;20235;-70
2022/11/25 06:12:53;;;;;;;9.33;4.60;;;5.70;99.90;;;;;;10389692;28;20597;-72
2022/11/25 06:17:54;;;;;;;9.80;4.17;;;5.70;99.90;;;;;;10388731;28;20216;-74
2022/11/25 06:22:57;;;;;;;9.07;3.83;;;5.70;99.90;;;;;;10390261;28;20796;-72
2022/11/25 06:27:58;;;;;;;11.40;4.67;;;5.80;99.90;;;;;;10392405;28;20606;-72
2022/11/25 06:32:59;;;;;;;11.93;4.70;;;5.80;99.90;;;;;;10384844;28;20223;-72
2022/11/25 06:38:00;;;;;;;9.13;4.90;;;5.90;99.90;;;;;;10387861;28;20231;-71
2022/11/25 06:43:00;;;;;;;10.80;4.73;;;5.90;99.90;;;;;;10386153;28;20226;-73
2022/11/25 06:48:01;;;;;;;11.37;5.00;;;6.00;99.90;;;;;;10387777;28;20239;-72
2022/11/25 06:53:02;;;;;;;10.97;5.33;;;6.10;99.90;;;;;;10387368;28;20216;-73
2022/11/25 06:58:02;;;;;;;8.30;4.63;;;6.20;99.90;;;;;;10387280;28;20639;-73
2022/11/25 07:03:03;;;;;;;12.50;5.60;;;6.30;99.90;;;;;;10386931;28;20214;-71
2022/11/25 07:08:04;;;;;;;13.37;4.90;;;6.40;99.90;;;;;;10386076;28;20232;-70
2022/11/25 07:13:04;;;;;;;11.00;4.57;;;6.50;99.90;;;;;;10390978;28;20221;-72
2022/11/25 07:18:05;;;;;;;11.23;4.57;;;6.60;99.90;;;;;;10386830;28;20311;-71
2022/11/25 07:23:05;;;;;;;8.37;4.10;;;6.60;99.90;;;;;;10385407;28;20251;-71
2022/11/25 07:28:06;;;;;;;9.40;4.10;;;6.70;99.90;;;;;;10382677;28;20229;-72
2022/11/25 07:33:06;;;;;;;7.70;3.80;;;6.70;99.90;;;;;;10393685;28;20232;-71
2022/11/25 07:38:07;;;;;;;10.47;4.27;;;6.90;99.90;;;;;;10386917;28;20224;-71
2022/11/25 07:43:07;;;;;;;9.60;4.10;;;7.00;99.90;;;;;;10384917;28;20308;-70
2022/11/25 07:48:08;;;;;;;10.33;4.20;;;7.00;99.90;;;;;;10387386;28;20236;-71
2022/11/25 07:53:09;;;;;;;10.10;3.80;;;7.20;99.90;;;;;;10389899;28;20216;-72
2022/11/25 07:58:09;;;;;;;10.43;4.10;;;7.20;99.90;;;;;;10389674;28;20303;-71
2022/11/25 08:03:10;;;;;;;8.40;3.87;;;7.30;99.90;;;;;;10392662;28;20224;-70
2022/11/25 08:08:10;;;;;;;7.80;3.53;;;7.40;99.90;;;;;;10395780;28;20224;-72
2022/11/25 08:13:11;;;;;;;8.03;3.47;;;7.60;99.90;;;;;;10391046;28;20225;-71
2022/11/25 08:18:11;;;;;;;10.27;3.67;;;7.70;99.90;;;;;;10389766;28;20746;-71
2022/11/25 08:23:12;;;;;;;7.83;2.63;;;7.90;99.90;;;;;;10400898;28;20235;-71
2022/11/25 08:28:12;;;;;;;5.23;3.10;;;7.90;99.90;;;;;;10390679;28;20321;-70
2022/11/25 08:33:13;;;;;;;7.60;2.97;;;8.00;99.90;;;;;;10388423;28;20329;-71
2022/11/25 08:38:14;;;;;;;10.80;3.67;;;8.10;99.90;;;;;;10397116;28;20227;-72
2022/11/25 08:43:14;;;;;;;6.30;2.77;;;8.30;99.90;;;;;;10397262;28;20229;-73
2022/11/25 08:48:17;;;;;;;8.30;3.40;;;8.50;99.90;;;;;;10394793;28;20223;-72
2022/11/25 08:53:19;;;;;;;7.80;3.00;;;8.50;99.90;;;;;;10394653;28;20329;-71
2022/11/25 08:58:19;;;;;;;8.93;3.07;;;8.60;99.90;;;;;;10388169;28;20228;-72
2022/11/25 09:03:20;;;;;;;7.33;3.33;;;8.70;99.90;;;;;;10392163;28;20226;-71
2022/11/25 09:08:20;;;;;;;8.00;3.20;;;8.80;99.90;;;;;;10388703;28;20237;-70
2022/11/25 09:13:24;;;;;;;7.20;3.60;;;8.80;99.90;;;;;;10402198;28;20281;-71
2022/11/25 09:18:25;;;;;;;5.20;2.70;;;8.80;99.90;;;;;;10388375;28;20236;-71
2022/11/25 09:23:26;;;;;;;8.47;3.40;;;8.80;99.90;;;;;;10398112;28;20241;-72
2022/11/25 09:28:30;;;;;;;9.13;3.20;;;8.90;99.90;;;;;;10393637;28;20227;-73
2022/11/25 09:33:30;;;;;;;10.87;3.63;;;8.90;99.90;;;;;;10386720;28;20254;-72
2022/11/25 09:38:34;;;;;;;8.07;3.80;;;8.90;99.90;;;;;;10391567;28;20239;-71
2022/11/25 09:49:53;;;;;;;11.03;3.90;;;9.20;99.90;;;;;;10386311;28;20220;-72
2022/11/25 09:55:04;;;;;;;8.80;3.73;;;9.30;99.90;;;;;;10389187;28;20228;-71
2022/11/25 10:00:19;;;;;;;10.43;4.40;;;9.40;99.90;;;;;;10430910;28;20243;-71
2022/11/25 10:05:26;;;;;;;8.80;4.70;;;9.70;99.90;;;;;;10392063;28;20219;-72
2022/11/25 10:10:36;;;;;;;9.60;3.93;;;9.90;99.90;;;;;;10387353;28;20228;-75
2022/11/25 10:15:44;;;;;;;6.27;3.77;;;10.20;99.90;;;;;;10391545;28;20220;-71
2022/11/25 10:20:48;;;;;;;7.87;3.50;;;10.30;99.90;;;;;;10390513;28;20247;-72
2022/11/25 10:25:54;;;;;;;7.27;3.50;;;10.30;99.90;;;;;;10387406;28;20723;-72
2022/11/25 10:31:02;;;;;;;11.03;4.23;;;10.30;99.90;;;;;;10382995;28;20289;-72
2022/11/25 10:36:02;;;;;;;8.73;3.93;;;10.50;99.90;;;;;;10383712;28;20227;-72
2022/11/25 10:41:03;;;;;;;13.10;4.20;;;10.40;99.90;;;;;;10386179;28;20229;-71
2022/11/25 10:46:22;;;;;;;8.37;4.10;;;10.10;99.90;;;;;;10388678;28;20330;-70
2022/11/25 10:51:41;;;;;;;9.17;4.10;;;10.00;99.90;;;;;;10384533;28;20217;-71
2022/11/25 10:56:47;;;;;;;10.73;4.23;;;10.10;99.90;;;;;;10384368;28;20224;-72
2022/11/25 11:01:49;;;;;;;8.77;3.80;;;10.50;99.90;;;;;;10389335;28;20306;-72
2022/11/25 11:06:50;;;;;;;8.30;3.77;;;10.70;99.90;;;;;;10386015;28;20235;-71
2022/11/25 11:11:51;;;;;;;10.67;4.33;;;10.80;99.90;;;;;;10387463;28;20227;-72
2022/11/25 11:16:54;;;;;;;8.00;4.20;;;10.70;99.90;;;;;;10385172;28;20250;-70
2022/11/25 11:21:56;;;;;;;7.63;4.20;;;10.70;99.90;;;;;;10390847;28;20220;-72
2022/11/25 11:27:19;;;;;;;12.17;4.13;;;10.70;99.90;;;;;;10387118;28;20236;-73
2022/11/25 11:32:23;;;;;;;13.37;4.40;;;10.40;99.90;;;;;;10391441;28;20258;-72
2022/11/25 11:37:43;;;;;;;8.40;3.87;;;10.70;99.90;;;;;;10391440;28;20227;-71
2022/11/25 11:43:08;;;;;;;14.63;3.37;;;11.40;99.90;;;;;;10383967;28;20316;-72
2022/11/25 11:48:17;;;;;;;9.00;4.07;;;11.80;99.90;;;;;;10392298;28;20249;-72
2022/11/25 11:53:34;;;;;;;9.57;4.30;;;11.50;99.90;;;;;;10383628;28;20228;-72
2022/11/25 11:58:47;;;;;;;8.17;4.30;;;11.20;99.90;;;;;;10388928;28;20238;-70
2022/11/25 12:04:17;;;;;;;10.13;4.03;;;11.10;99.90;;;;;;10384137;28;20276;-70
2022/11/25 12:09:22;;;;;;;11.07;4.40;;;11.00;99.90;;;;;;10381418;28;20247;-72
2022/11/25 12:14:42;;;;;;;9.33;4.10;;;11.10;99.90;;;;;;10382400;28;20223;-71
2022/11/25 12:19:49;;;;;;;10.10;4.07;;;11.10;99.90;;;;;;10382079;28;20246;-72
2022/11/25 12:25:22;;;;;;;11.43;4.57;;;11.10;99.90;;;;;;10393396;28;20220;-71
2022/11/25 12:30:23;;;;;;;9.40;4.60;;;11.10;99.90;;;;;;10434072;28;20281;-71
2022/11/25 12:35:30;;;;;;;7.90;4.63;;;11.00;99.90;;;;;;10380450;28;20196;-71
2022/11/25 12:40:34;;;;;;;11.47;4.43;;;11.00;99.90;;;;;;10386973;28;20722;-72
2022/11/25 12:45:34;;;;;;;9.50;4.90;;;10.90;99.90;;;;;;10386296;28;20265;-71
2022/11/25 12:51:01;;;;;;;6.90;4.30;;;10.80;99.90;;;;;;10389035;28;20238;-70
2022/11/25 12:56:05;;;;;;;7.70;4.30;;;10.60;99.90;;;;;;10391987;28;20274;-71
2022/11/25 13:01:31;;;;;;;10.83;4.40;;;10.40;99.90;;;;;;10393166;28;20231;-72
2022/11/25 13:06:44;;;;;;;15.10;4.93;;;10.40;99.90;;;;;;10395294;28;20318;-72
2022/11/25 13:11:47;;;;;;;10.53;4.77;;;10.50;99.90;;;;;;10394429;28;20310;-72
2022/11/25 13:16:49;;;;;;;8.17;4.27;;;10.70;99.90;;;;;;10390258;28;20220;-72
2022/11/25 13:21:55;;;;;;;9.30;5.10;;;10.90;99.90;;;;;;10392941;28;20218;-73
2022/11/25 13:26:56;;;;;;;12.27;4.70;;;11.20;99.90;;;;;;10390136;28;20235;-72
2022/11/25 13:31:59;;;;;;;9.60;4.40;;;11.30;99.90;;;;;;10391466;28;20227;-73
2022/11/25 13:37:21;;;;;;;11.40;5.07;;;11.30;99.90;;;;;;10400977;28;20795;-72
2022/11/25 13:42:25;;;;;;;12.53;4.30;;;11.00;99.90;;;;;;10386088;28;20216;-72
2022/11/25 13:47:34;;;;;;;10.73;4.20;;;10.80;99.90;;;;;;10394433;28;20637;-72
2022/11/25 13:53:03;;;;;;;11.60;4.50;;;10.60;99.90;;;;;;10393455;28;20284;-71
2022/11/25 13:58:15;;;;;;;6.87;4.30;;;10.40;99.90;;;;;;10381209;28;20315;-73
2022/11/25 14:03:18;;;;;;;10.20;4.77;;;10.20;99.90;;;;;;10393015;28;20227;-71
2022/11/25 14:08:33;;;;;;;10.13;4.50;;;10.20;99.90;;;;;;10391948;28;20235;-72
2022/11/25 14:13:49;;;;;;;11.13;4.37;;;10.20;99.90;;;;;;10410368;28;20260;-72
2022/11/25 14:19:44;;;;;;;8.53;4.53;;;10.10;99.90;;;;;;10394177;28;20715;-72
2022/11/25 14:24:49;;;;;;;12.67;5.27;;;9.90;99.90;;;;;;10364425;28;20227;-74
2022/11/25 14:30:08;;;;;;;10.67;4.80;;;9.80;99.90;;;;;;10431976;28;20294;-71
2022/11/25 14:35:21;;;;;;;7.00;4.17;;;9.70;99.90;;;;;;10431091;28;20356;-72
2022/11/25 14:40:30;;;;;;;10.30;4.50;;;9.70;99.90;;;;;;10425752;28;20246;-72
2022/11/25 14:45:33;;;;;;;9.00;4.53;;;9.80;99.90;;;;;;10424902;28;20239;-71
2022/11/25 14:50:33;;;;;;;8.83;4.30;;;9.90;99.90;;;;;;10432879;28;20728;-72
2022/11/25 14:55:35;;;;;;;11.67;4.70;;;9.90;99.90;;;;;;10420694;28;20222;-72
2022/11/25 15:00:50;;;;;;;13.70;5.40;;;9.90;99.90;;;;;;10431485;28;20234;-73
2022/11/25 15:05:56;;;;;;;9.17;4.63;;;9.90;99.90;;;;;;10426937;28;21253;-72
2022/11/25 15:11:00;;;;;;;10.07;4.43;;;9.80;99.90;;;;;;10427796;28;20223;-71
2022/11/25 15:16:19;;;;;;;10.80;4.47;;;9.70;99.90;;;;;;10427685;28;20262;-72
2022/11/25 15:21:26;;;;;;;11.07;4.63;;;9.60;99.90;;;;;;10430396;28;20230;-73
2022/11/25 15:26:30;;;;;;;15.50;5.80;;;9.50;99.90;;;;;;10424569;28;20255;-71
2022/11/25 15:31:33;;;;;;;11.47;4.73;;;9.40;99.90;;;;;;10433008;28;20215;-72
2022/11/25 15:36:34;;;;;;;13.50;5.57;;;9.30;99.90;;;;;;10452826;28;20250;-71
2022/11/25 15:41:35;;;;;;;11.40;5.73;;;9.10;99.90;;;;;;10422834;28;20227;-72
2022/11/25 15:46:37;;;;;;;10.97;5.47;;;9.00;99.90;;;;;;10430753;28;20288;-72
2022/11/25 15:51:42;;;;;;;11.50;6.50;;;8.90;99.90;;;;;;10422585;28;20742;-70
2022/11/25 15:56:54;;;;;;;13.17;6.80;;;8.70;99.90;;;;;;10428265;28;20279;-71
2022/11/25 16:01:55;;;;;;;17.10;6.70;;;8.70;99.90;;;;;;10426500;28;20280;-72
2022/11/25 16:06:58;;;;;;;12.53;5.50;;;8.60;99.90;;;;;;10435156;28;20232;-72
2022/11/25 16:12:06;;;;;;;13.30;5.80;;;8.70;99.90;;;;;;10426991;28;20223;-70
2022/11/25 16:17:11;;;;;;;14.57;5.93;;;8.80;99.90;;;;;;10433003;28;20285;-71
2022/11/25 16:22:15;;;;;;;13.97;6.23;;;8.90;99.90;;;;;;10435077;28;20227;-71
2022/11/25 16:27:24;;;;;;;12.17;6.07;;;8.90;99.90;;;;;;10431154;28;20609;-71
2022/11/25 16:32:28;;;;;;;12.83;6.83;;;8.90;99.90;;;;;;10428854;28;20250;-71
2022/11/25 16:37:28;;;;;;;11.97;6.77;;;8.80;99.90;;;;;;10437436;28;20228;-71
2022/11/25 16:42:29;;;;;;;16.13;6.40;;;8.70;99.90;;;;;;10445065;28;20986;-72
2022/11/25 16:47:30;;;;;;;14.67;5.50;;;8.70;99.90;;;;;;10429478;28;20276;-72
2022/11/25 16:52:31;;;;;;;16.00;5.90;;;8.60;99.90;;;;;;10436313;28;20323;-71
2022/11/25 16:57:33;;;;;;;12.77;5.57;;;8.50;99.90;;;;;;10429010;28;20316;-72
2022/11/25 17:02:37;;;;;;;15.23;5.67;;;8.30;99.90;;;;;;10435358;28;20602;-72
2022/11/25 17:07:38;;;;;;;10.60;5.07;;;8.30;99.90;;;;;;10429690;28;20254;-71
2022/11/25 17:12:40;;;;;;;12.60;6.03;;;8.20;99.90;;;;;;10435564;28;20231;-73
2022/11/25 17:17:43;;;;;;;11.63;5.80;;;8.20;99.90;;;;;;10429570;28;20603;-72
2022/11/25 17:22:43;;;;;;;12.07;5.53;;;8.20;99.90;;;;;;10433049;28;20243;-72
2022/11/25 17:27:46;;;;;;;13.83;6.00;;;8.30;99.90;;;;;;10431736;28;20253;-72
2022/11/25 17:32:52;;;;;;;13.70;5.67;;;8.30;99.90;;;;;;10443035;28;20223;-72
2022/11/25 17:37:52;;;;;;;9.40;5.10;;;8.30;99.90;;;;;;10429679;28;20523;-71
2022/11/25 17:42:53;;;;;;;9.90;5.67;;;8.30;99.90;;;;;;10436721;28;20757;-72
2022/11/25 17:47:53;;;;;;;14.10;5.57;;;8.20;99.90;;;;;;10432556;28;20249;-73
2022/11/25 17:52:54;;;;;;;11.90;5.87;;;8.20;99.90;;;;;;10435162;28;20666;-71
2022/11/25 17:57:55;;;;;;;14.23;6.47;;;8.40;99.90;;;;;;10440998;28;20302;-73
2022/11/25 18:02:55;;;;;;;11.43;5.57;;;8.50;99.90;;;;;;10433993;28;20278;-71
2022/11/25 18:07:56;;;;;;;11.97;5.70;;;8.50;99.90;;;;;;10425389;28;20338;-71
2022/11/25 18:12:57;;;;;;;15.63;7.07;;;8.60;99.90;;;;;;10426451;28;20289;-70
2022/11/25 18:18:10;;;;;;;12.33;6.17;;;8.70;99.90;;;;;;10430012;28;20226;-72
2022/11/25 18:23:11;;;;;;;12.80;6.10;;;8.70;99.90;;;;;;10434083;28;20239;-71
2022/11/25 18:28:18;;;;;;;10.80;4.77;;;8.80;99.90;;;;;;10426331;28;20227;-71
2022/11/25 18:33:19;;;;;;;14.63;5.50;;;8.80;99.90;;;;;;10425549;28;20315;-72
2022/11/25 18:38:20;;;;;;;12.20;4.57;;;8.90;99.90;;;;;;10433029;28;20227;-73
2022/11/25 18:43:23;;;;;;;10.47;4.60;;;8.90;99.90;;;;;;10424635;28;20253;-71
2022/11/25 18:48:25;;;;;;;13.67;4.70;;;8.90;99.90;;;;;;10433307;28;20235;-71
2022/11/25 18:53:26;;;;;;;15.80;4.43;;;8.90;99.90;;;;;;10430577;28;20268;-73
2022/11/25 18:58:27;;;;;;;10.80;4.40;;;9.00;99.90;;;;;;10433933;28;20223;-72
2022/11/25 19:03:30;;;;;;;12.53;4.80;;;9.00;99.90;;;;;;10424160;28;20218;-72
2022/11/25 19:08:31;;;;;;;12.77;4.47;;;9.00;99.90;;;;;;10432619;28;20599;-72
2022/11/25 19:13:34;;;;;;;17.63;5.97;;;9.00;99.90;;;;;;10424293;28;20231;-72
2022/11/25 19:18:38;;;;;;;12.03;4.37;;;9.00;99.90;;;;;;10432122;28;20229;-73
2022/11/25 19:23:39;;;;;;;9.57;4.57;;;9.00;99.90;;;;;;10432039;28;20223;-72
2022/11/25 19:28:41;;;;;;;16.43;5.30;;;8.90;99.90;;;;;;10415828;28;20246;-72
2022/11/25 19:33:45;;;;;;;11.27;4.67;;;8.90;99.90;;;;;;10450503;28;20693;-72
2022/11/25 19:38:46;;;;;;;10.50;4.20;;;8.70;99.90;;;;;;10429538;28;20240;-73
2022/11/25 19:43:46;;;;;;;11.43;5.20;;;8.70;99.90;;;;;;10425684;28;20280;-72
2022/11/25 19:48:47;;;;;;;14.20;4.70;;;8.70;99.90;;;;;;10439634;28;20259;-73
2022/11/25 19:53:48;;;;;;;12.40;5.10;;;8.60;99.90;;;;;;10443887;28;20221;-71
2022/11/25 19:58:55;;;;;;;12.70;4.70;;;8.40;99.90;;;;;;10443666;28;20241;-72
2022/11/25 20:03:57;;;;;;;15.83;4.80;;;8.30;99.90;;;;;;10441974;28;20225;-71
2022/11/25 20:08:58;;;;;;;11.30;4.53;;;8.20;99.90;;;;;;10438753;28;20240;-73
2022/11/25 20:13:58;;;;;;;15.97;5.77;;;8.20;99.90;;;;;;10440763;28;20218;-72
2022/11/25 20:18:59;;;;;;;19.80;5.47;;;8.10;99.90;;;;;;10439208;28;20641;-71
2022/11/25 20:24:08;;;;;;;15.73;5.10;;;8.10;99.90;;;;;;10446700;28;20894;-71
2022/11/25 20:29:20;;;;;;;15.60;5.20;;;8.10;99.90;;;;;;10438055;28;20238;-71
2022/11/25 20:34:20;;;;;;;17.23;5.40;;;8.10;99.90;;;;;;10442497;28;20230;-72
2022/11/25 20:39:21;;;;;;;18.20;5.20;;;8.10;99.90;;;;;;10436579;28;20598;-71
2022/11/25 20:44:27;;;;;;;13.30;5.57;;;7.90;99.90;;;;;;10443024;28;20257;-72
2022/11/25 20:49:28;;;;;;;13.07;5.10;;;7.90;99.90;;;;;;10436973;28;20277;-70
2022/11/25 20:54:31;;;;;;;11.87;5.97;;;7.80;99.90;;;;;;10444392;28;20280;-71
2022/11/25 20:59:33;;;;;;;13.87;5.60;;;7.70;99.90;;;;;;10433565;28;20644;-72
2022/11/25 21:04:33;;;;;;;16.50;5.40;;;7.60;99.90;;;;;;10436522;28;20232;-72
2022/11/25 21:09:35;;;;;;;16.03;6.10;;;7.50;99.90;;;;;;10427861;28;20689;-71
2022/11/25 21:14:35;;;;;;;11.20;5.70;;;7.50;99.90;;;;;;10435860;28;20239;-71
2022/11/25 21:19:36;;;;;;;15.23;5.67;;;7.40;99.90;;;;;;10427696;28;20224;-71
2022/11/25 21:24:40;;;;;;;16.60;6.13;;;7.30;99.90;;;;;;10428716;28;20220;-72
2022/11/25 21:29:43;;;;;;;17.27;5.87;;;7.30;99.90;;;;;;10447094;28;20811;-71
2022/11/25 21:34:43;;;;;;;15.13;7.37;;;7.20;99.90;;;;;;10429540;28;20217;-71
2022/11/25 21:39:44;;;;;;;15.00;5.67;;;7.20;99.90;;;;;;10440819;28;20585;-71
2022/11/25 21:44:45;;;;;;;18.83;7.80;;;7.10;99.90;;;;;;10442440;28;20239;-72
2022/11/25 21:49:46;;;;;;;14.83;6.63;;;7.10;99.90;;;;;;10444760;28;20245;-71
2022/11/25 21:54:47;;;;;;;13.63;6.50;;;7.00;99.90;;;;;;10432693;28;20227;-71
2022/11/25 21:59:48;;;;;;;11.50;6.17;;;7.00;99.90;;;;;;10428639;28;20888;-70
2022/11/25 22:04:49;;;;;;;14.73;7.03;;;7.00;99.90;;;;;;10434697;28;20227;-70
2022/11/25 22:09:49;;;;;;;12.67;5.97;;;6.90;99.90;;;;;;10433679;28;20587;-71
2022/11/25 22:14:50;;;;;;;15.17;6.93;;;6.80;99.90;;;;;;10430956;28;20220;-71
2022/11/25 22:19:51;;;;;;;12.53;5.77;;;6.80;99.90;;;;;;10428602;28;20571;-73
2022/11/25 22:24:54;;;;;;;12.77;6.53;;;6.70;99.90;;;;;;10430363;28;20485;-71
2022/11/25 22:29:55;;;;;;;14.47;5.80;;;6.60;99.90;;;;;;10425651;28;20217;-72
2022/11/25 22:34:56;;;;;;;15.13;6.03;;;6.50;99.90;;;;;;10427665;28;20222;-71
2022/11/25 22:39:56;;;;;;;16.73;6.70;;;6.50;99.90;;;;;;10430549;28;20221;-70
2022/11/25 22:44:58;;;;;;;14.67;6.57;;;6.50;99.90;;;;;;10435842;28;20615;-70
2022/11/25 22:50:13;;;;;;;19.47;6.83;;;6.40;99.90;;;;;;10428277;28;20219;-70
2022/11/25 22:55:32;;;;;;;12.57;6.03;;;6.40;99.90;;;;;;10436405;28;20274;-70
2022/11/25 23:00:46;;;;;;;15.10;6.83;;;6.40;99.90;;;;;;10440341;28;20220;-71
2022/11/25 23:05:48;;;;;;;14.00;6.13;;;6.50;99.90;;;;;;10430663;28;20255;-71
2022/11/25 23:10:50;;;;;;;17.63;6.33;;;6.60;99.90;;;;;;10426585;28;20221;-71
2022/11/25 23:16:01;;;;;;;13.43;6.00;;;6.70;99.90;;;;;;10429754;28;20605;-71
2022/11/25 23:21:01;;;;;;;13.80;5.90;;;6.70;99.90;;;;;;10428325;28;20277;-73
2022/11/25 23:26:02;;;;;;;15.17;5.70;;;6.90;99.90;;;;;;10435928;28;20695;-75
2022/11/25 23:31:02;;;;;;;16.17;5.20;;;7.10;99.90;;;;;;10431333;28;20581;-75
2022/11/25 23:36:16;;;;;;;15.40;5.50;;;7.20;99.90;;;;;;10436406;28;20250;-74
2022/11/25 23:41:22;;;;;;;12.90;4.93;;;7.40;99.90;;;;;;10425309;28;20744;-75
2022/11/25 23:46:28;;;;;;;14.67;5.03;;;7.50;99.90;;;;;;10436828;28;20228;-74
2022/11/25 23:51:32;;;;;;;11.70;4.97;;;7.60;99.90;;;;;;10423538;28;20230;-75
2022/11/25 23:56:32;;;;;;;15.43;5.13;;;7.70;99.90;;;;;;10422406;28;20329;-75
